createdAt,value
2023-03-27T00:01:17.956Z,21.50
2023-03-27T00:03:52.215Z,21.50
2023-03-27T00:06:26.155Z,21.50
2023-03-27T00:08:58.989Z,21.50
2023-03-27T00:11:31.737Z,21.60
2023-03-27T00:14:04.873Z,21.60
2023-03-27T00:16:37.858Z,21.60
2023-03-27T00:19:11.634Z,21.60
2023-03-27T00:21:47.895Z,21.60
2023-03-27T00:24:20.808Z,21.60
2023-03-27T00:26:53.967Z,21.70
2023-03-27T00:29:26.885Z,21.70
2023-03-27T00:32:01.296Z,21.70
2023-03-27T00:34:34.512Z,21.80
2023-03-27T00:37:07.611Z,21.80
2023-03-27T00:39:40.981Z,21.80
2023-03-27T00:42:18.361Z,21.80
2023-03-27T00:44:51.892Z,21.90
2023-03-27T00:47:26.695Z,21.90
2023-03-27T00:49:59.655Z,21.90
2023-03-27T00:52:33.816Z,21.90
2023-03-27T00:55:08.469Z,21.90
2023-03-27T00:57:46.384Z,21.90
2023-03-27T01:00:20.726Z,21.90
2023-03-27T01:02:54.860Z,21.90
2023-03-27T01:05:29.214Z,21.90
2023-03-27T01:08:02.884Z,21.90
2023-03-27T01:10:49.667Z,21.90
2023-03-27T01:13:44.468Z,21.90
2023-03-27T01:16:22.430Z,21.90
2023-03-27T01:18:57.263Z,21.90
2023-03-27T01:21:44.626Z,22.00
2023-03-27T01:24:38.836Z,22.00
2023-03-27T01:27:17.689Z,22.00
2023-03-27T01:29:58.985Z,22.00
2023-03-27T01:32:57.796Z,22.00
2023-03-27T01:35:44.761Z,22.00
2023-03-27T01:38:32.158Z,22.00
2023-03-27T01:41:07.361Z,22.00
2023-03-27T01:43:54.241Z,22.00
2023-03-27T01:46:35.080Z,22.00
2023-03-27T01:49:15.881Z,22.00
2023-03-27T01:51:59.661Z,22.10
2023-03-27T01:54:40.835Z,22.10
2023-03-27T01:57:22.347Z,22.10
2023-03-27T01:59:57.616Z,22.20
2023-03-27T02:02:34.127Z,22.20
2023-03-27T02:05:18.372Z,22.20
2023-03-27T02:07:56.470Z,22.20
2023-03-27T02:10:30.986Z,22.20
2023-03-27T02:13:05.604Z,22.20
2023-03-27T02:15:40.516Z,22.20
2023-03-27T02:18:15.208Z,22.20
2023-03-27T02:20:52.343Z,22.20
2023-03-27T02:23:25.184Z,22.20
2023-03-27T02:25:58.131Z,22.20
2023-03-27T02:28:32.749Z,22.20
2023-03-27T02:31:32.218Z,22.20
2023-03-27T02:34:29.042Z,22.10
2023-03-27T02:37:33.253Z,22.20
2023-03-27T02:40:15.419Z,22.20
2023-03-27T02:42:59.910Z,22.10
2023-03-27T02:46:00.622Z,22.20
2023-03-27T02:48:38.052Z,22.10
2023-03-27T02:51:18.428Z,22.10
2023-03-27T02:53:53.019Z,22.20
2023-03-27T02:56:27.920Z,22.20
2023-03-27T02:59:02.566Z,22.20
2023-03-27T03:01:36.102Z,22.20
2023-03-27T03:04:14.263Z,22.30
2023-03-27T03:06:47.637Z,22.30
2023-03-27T03:09:21.096Z,22.30
2023-03-27T03:11:59.060Z,22.20
2023-03-27T03:14:42.910Z,22.20
2023-03-27T03:17:16.316Z,22.20
2023-03-27T03:19:49.138Z,22.20
2023-03-27T03:22:21.890Z,22.20
2023-03-27T03:24:54.796Z,22.10
2023-03-27T03:27:28.153Z,22.10
2023-03-27T03:30:01.026Z,22.10
2023-03-27T03:32:34.008Z,22.10
2023-03-27T03:35:06.875Z,22.00
2023-03-27T03:37:40.834Z,22.00
2023-03-27T03:40:14.322Z,22.00
2023-03-27T03:42:55.991Z,22.00
2023-03-27T03:45:28.640Z,22.00
2023-03-27T03:48:01.771Z,21.90
2023-03-27T03:50:34.846Z,21.90
2023-03-27T03:53:07.491Z,21.90
2023-03-27T03:55:40.337Z,21.90
2023-03-27T03:58:13.089Z,21.90
2023-03-27T04:00:46.532Z,21.90
2023-03-27T04:03:19.658Z,21.90
2023-03-27T04:05:52.845Z,21.90
2023-03-27T04:08:25.735Z,21.90
2023-03-27T04:10:58.942Z,21.90
2023-03-27T04:13:31.942Z,21.90
2023-03-27T04:16:05.560Z,21.80
2023-03-27T04:18:39.827Z,21.80
2023-03-27T04:21:20.062Z,21.80
2023-03-27T04:23:53.223Z,21.80
2023-03-27T04:26:27.438Z,21.80
2023-03-27T04:29:10.537Z,21.80
2023-03-27T04:31:40.136Z,21.80
2023-03-27T04:34:13.184Z,21.80
2023-03-27T04:36:45.984Z,21.80
2023-03-27T04:39:19.223Z,21.80
2023-03-27T04:41:52.154Z,21.80
2023-03-27T04:44:24.944Z,21.80
2023-03-27T04:46:58.025Z,21.80
2023-03-27T04:49:30.948Z,21.80
2023-03-27T04:52:04.029Z,21.80
2023-03-27T04:54:36.942Z,21.80
2023-03-27T04:57:10.294Z,21.80
2023-03-27T04:59:43.177Z,21.70
2023-03-27T05:02:16.718Z,21.70
2023-03-27T05:04:50.735Z,21.70
2023-03-27T05:07:23.574Z,21.70
2023-03-27T05:09:56.571Z,21.70
2023-03-27T05:12:29.875Z,21.70
2023-03-27T05:15:04.034Z,21.70
2023-03-27T05:17:37.094Z,21.70
2023-03-27T05:20:10.697Z,21.60
2023-03-27T05:22:44.026Z,21.60
2023-03-27T05:25:17.089Z,21.60
2023-03-27T05:27:54.145Z,21.60
2023-03-27T05:30:28.736Z,21.60
2023-03-27T05:33:01.776Z,21.50
2023-03-27T05:35:35.006Z,21.50
2023-03-27T05:38:08.491Z,21.50
2023-03-27T05:40:41.978Z,21.50
2023-03-27T05:43:15.122Z,21.50
2023-03-27T05:45:48.019Z,21.50
2023-03-27T05:48:20.936Z,21.50
2023-03-27T05:50:54.270Z,21.50
2023-03-27T05:53:28.263Z,21.50
2023-03-27T05:56:02.911Z,21.50
2023-03-27T05:58:35.388Z,21.50
2023-03-27T06:01:12.988Z,21.50
2023-03-27T06:03:46.239Z,21.50
2023-03-27T06:06:19.937Z,21.50
2023-03-27T06:08:52.839Z,21.50
2023-03-27T06:11:25.879Z,21.50
2023-03-27T06:13:58.960Z,21.50
2023-03-27T06:16:31.829Z,21.40
2023-03-27T06:19:05.132Z,21.40
2023-03-27T06:21:39.425Z,21.40
2023-03-27T06:24:12.420Z,21.40
2023-03-27T06:26:45.442Z,21.40
2023-03-27T06:29:18.341Z,21.40
2023-03-27T06:31:51.485Z,21.40
2023-03-27T06:34:24.606Z,21.40
2023-03-27T06:36:57.599Z,21.30
2023-03-27T06:39:30.528Z,21.30
2023-03-27T06:42:03.529Z,21.40
2023-03-27T06:44:36.516Z,21.30
2023-03-27T06:47:09.365Z,21.30
2023-03-27T06:49:42.790Z,21.30
2023-03-27T06:52:15.691Z,21.30
2023-03-27T06:54:48.968Z,21.30
2023-03-27T06:57:21.950Z,21.30
2023-03-27T06:59:55.398Z,21.20
2023-03-27T07:02:28.403Z,21.20
2023-03-27T07:05:04.946Z,21.20
2023-03-27T07:07:36.824Z,21.20
2023-03-27T07:10:12.069Z,21.20
2023-03-27T07:12:46.186Z,21.20
2023-03-27T07:15:19.932Z,21.20
2023-03-27T07:18:04.031Z,21.20
2023-03-27T07:20:38.255Z,21.20
2023-03-27T07:23:11.341Z,21.20
2023-03-27T07:25:44.251Z,21.20
2023-03-27T07:28:19.291Z,21.20
2023-03-27T07:30:52.282Z,21.20
2023-03-27T07:33:25.235Z,21.20
2023-03-27T07:35:58.764Z,21.20
2023-03-27T07:38:31.948Z,21.20
2023-03-27T07:41:05.945Z,21.20
2023-03-27T07:43:38.739Z,21.20
2023-03-27T07:46:11.417Z,21.20
2023-03-27T07:48:44.172Z,21.20
2023-03-27T07:51:17.094Z,21.20
2023-03-27T07:53:51.094Z,21.20
2023-03-27T07:56:25.206Z,21.10
2023-03-27T07:58:57.975Z,21.10
2023-03-27T08:01:31.111Z,21.10
2023-03-27T08:04:04.125Z,21.10
2023-03-27T08:06:41.315Z,21.10
2023-03-27T08:09:14.866Z,21.00
2023-03-27T08:11:47.788Z,21.00
2023-03-27T08:14:20.710Z,20.90
2023-03-27T08:16:57.653Z,20.90
2023-03-27T08:19:27.595Z,20.90
2023-03-27T08:22:01.713Z,20.80
2023-03-27T08:24:34.704Z,20.80
2023-03-27T08:27:08.123Z,20.80
2023-03-27T08:29:40.921Z,20.70
2023-03-27T08:32:13.781Z,20.70
2023-03-27T08:34:47.500Z,20.70
2023-03-27T08:37:20.810Z,20.70
2023-03-27T08:39:53.974Z,20.60
2023-03-27T08:42:29.388Z,20.60
2023-03-27T08:45:04.168Z,20.60
2023-03-27T08:47:47.736Z,20.50
2023-03-27T08:50:38.103Z,20.50
2023-03-27T08:53:12.762Z,20.50
2023-03-27T08:55:47.257Z,20.50
2023-03-27T08:58:24.209Z,20.40
2023-03-27T09:00:59.192Z,20.40
2023-03-27T09:03:37.629Z,20.40
2023-03-27T09:06:15.349Z,20.40
2023-03-27T09:08:57.037Z,20.40
2023-03-27T09:11:51.579Z,20.40
2023-03-27T09:14:29.519Z,20.30
2023-03-27T09:17:04.635Z,20.30
2023-03-27T09:19:42.796Z,20.30
2023-03-27T09:22:30.013Z,20.20
2023-03-27T09:25:04.549Z,20.10
2023-03-27T09:27:39.736Z,20.10
2023-03-27T09:30:26.642Z,20.10
2023-03-27T09:33:09.418Z,20.00
2023-03-27T09:35:42.373Z,20.00
2023-03-27T09:38:41.312Z,19.90
2023-03-27T09:41:19.238Z,19.90
2023-03-27T09:44:02.952Z,19.80
2023-03-27T09:46:37.889Z,19.80
2023-03-27T09:49:22.313Z,19.80
2023-03-27T09:51:56.455Z,19.80
2023-03-27T09:54:34.713Z,19.80
2023-03-27T09:57:13.246Z,19.70
2023-03-27T10:00:00.673Z,19.70
2023-03-27T10:02:34.688Z,19.70
2023-03-27T10:05:14.365Z,19.60
2023-03-27T10:07:47.781Z,19.60
2023-03-27T10:10:23.027Z,19.60
2023-03-27T10:13:01.490Z,19.50
2023-03-27T10:15:42.132Z,19.50
2023-03-27T10:18:25.774Z,19.50
2023-03-27T10:21:00.621Z,19.50
2023-03-27T10:23:35.677Z,19.40
2023-03-27T10:26:10.517Z,19.40
2023-03-27T10:28:44.909Z,19.50
2023-03-27T10:31:32.041Z,19.40
2023-03-27T10:34:06.893Z,19.40
2023-03-27T10:36:41.383Z,19.40
2023-03-27T10:39:18.265Z,19.30
2023-03-27T10:41:52.301Z,19.30
2023-03-27T10:44:27.639Z,19.30
2023-03-27T10:47:01.410Z,19.20
2023-03-27T10:50:07.474Z,19.20
2023-03-27T10:53:15.414Z,19.20
2023-03-27T10:55:58.909Z,19.10
2023-03-27T10:58:36.495Z,19.10
2023-03-27T11:01:20.685Z,19.10
2023-03-27T11:03:55.680Z,19.10
2023-03-27T11:06:30.812Z,19.10
2023-03-27T11:09:14.454Z,19.10
2023-03-27T11:12:00.454Z,19.00
2023-03-27T11:14:44.452Z,19.00
2023-03-27T11:17:19.670Z,19.00
2023-03-27T11:19:54.890Z,19.00
2023-03-27T11:22:38.471Z,19.00
2023-03-27T11:25:38.807Z,19.00
2023-03-27T11:28:45.081Z,18.90
2023-03-27T11:31:36.103Z,18.90
2023-03-27T11:34:28.912Z,18.90
2023-03-27T11:37:01.986Z,18.80
2023-03-27T11:39:45.773Z,18.80
2023-03-27T11:42:26.657Z,18.80
2023-03-27T11:45:00.749Z,18.80
2023-03-27T11:47:44.954Z,18.80
2023-03-27T11:50:29.278Z,18.80
2023-03-27T11:53:27.050Z,18.80
2023-03-27T11:56:07.877Z,18.80
2023-03-27T11:58:42.547Z,18.70
2023-03-27T12:01:25.909Z,18.80
2023-03-27T12:04:03.937Z,18.70
2023-03-27T12:07:04.686Z,18.70
2023-03-27T12:09:58.945Z,18.70
2023-03-27T12:13:07.204Z,18.70
2023-03-27T12:16:03.109Z,18.60
2023-03-27T12:19:08.076Z,18.60
2023-03-27T12:21:53.475Z,18.60
2023-03-27T12:24:58.998Z,18.50
2023-03-27T12:27:37.192Z,18.50
2023-03-27T12:30:20.630Z,18.50
2023-03-27T12:33:10.493Z,18.50
2023-03-27T12:35:54.513Z,18.50
2023-03-27T12:38:34.820Z,18.40
2023-03-27T12:41:27.714Z,18.40
2023-03-27T12:44:02.538Z,18.40
2023-03-27T12:46:43.002Z,18.40
2023-03-27T12:49:17.933Z,18.40
2023-03-27T12:52:02.038Z,18.40
2023-03-27T12:54:36.475Z,18.30
2023-03-27T12:57:24.033Z,18.30
2023-03-27T13:00:05.811Z,18.30
2023-03-27T13:03:03.860Z,18.30
2023-03-27T13:05:41.638Z,18.20
2023-03-27T13:08:19.559Z,18.20
2023-03-27T13:11:01.531Z,18.20
2023-03-27T13:14:01.207Z,18.20
2023-03-27T13:16:42.387Z,18.20
2023-03-27T13:19:51.447Z,18.20
2023-03-27T13:22:33.233Z,18.10
2023-03-27T13:25:22.740Z,18.10
2023-03-27T13:28:19.795Z,18.10
2023-03-27T13:30:54.884Z,18.10
2023-03-27T13:33:39.081Z,18.10
2023-03-27T13:36:20.741Z,18.10
2023-03-27T13:38:58.996Z,18.10
2023-03-27T13:41:52.506Z,18.10
2023-03-27T13:44:43.758Z,18.10
2023-03-27T13:47:39.929Z,18.10
2023-03-27T13:50:23.979Z,18.10
2023-03-27T13:53:23.635Z,18.00
2023-03-27T13:56:07.008Z,18.00
2023-03-27T13:58:57.802Z,18.00
2023-03-27T14:01:50.307Z,18.00
2023-03-27T14:04:35.421Z,18.00
2023-03-27T14:07:36.103Z,18.00
2023-03-27T14:10:29.304Z,17.90
2023-03-27T14:13:23.950Z,17.90
2023-03-27T14:16:21.724Z,17.90
2023-03-27T14:19:23.844Z,17.90
2023-03-27T14:21:59.486Z,17.90
2023-03-27T14:24:49.024Z,17.80
2023-03-27T14:27:26.195Z,17.80
2023-03-27T14:30:22.953Z,17.80
2023-03-27T14:32:58.178Z,17.90
2023-03-27T14:35:36.336Z,17.80
2023-03-27T14:38:11.001Z,17.80
2023-03-27T14:40:50.104Z,17.80
2023-03-27T14:43:24.072Z,17.80
2023-03-27T14:45:59.263Z,17.80
2023-03-27T14:48:34.075Z,17.80
2023-03-27T14:51:09.314Z,17.80
2023-03-27T14:53:45.301Z,17.80
2023-03-27T14:56:29.289Z,17.80
2023-03-27T14:59:07.290Z,17.80
2023-03-27T15:01:40.903Z,17.70
2023-03-27T15:04:15.405Z,17.70
2023-03-27T15:06:48.567Z,17.60
2023-03-27T15:09:22.460Z,17.60
2023-03-27T15:12:00.862Z,17.60
2023-03-27T15:14:35.356Z,17.60
2023-03-27T15:17:19.556Z,17.60
2023-03-27T15:20:10.809Z,17.60
2023-03-27T15:22:45.436Z,17.60
2023-03-27T15:25:21.463Z,17.60
2023-03-27T15:27:58.754Z,17.60
2023-03-27T15:30:42.546Z,17.70
2023-03-27T15:33:18.302Z,17.70
2023-03-27T15:35:57.899Z,17.70
2023-03-27T15:38:36.445Z,17.70
2023-03-27T15:41:14.420Z,17.70
2023-03-27T15:43:48.526Z,17.70
2023-03-27T15:46:26.940Z,17.70
2023-03-27T15:49:00.144Z,17.70
2023-03-27T15:51:37.134Z,17.70
2023-03-27T15:54:13.301Z,17.70
2023-03-27T15:56:47.343Z,17.80
2023-03-27T15:59:21.085Z,17.80
2023-03-27T16:01:56.473Z,17.80
2023-03-27T16:04:41.194Z,17.80
2023-03-27T16:07:21.764Z,17.80
2023-03-27T16:10:03.340Z,17.80
2023-03-27T16:12:53.841Z,17.80
2023-03-27T16:15:38.189Z,17.80
2023-03-27T16:18:25.379Z,17.80
2023-03-27T16:20:59.994Z,17.80
2023-03-27T16:23:33.019Z,17.90
2023-03-27T16:26:07.215Z,17.90
2023-03-27T16:28:40.363Z,17.90
2023-03-27T16:31:17.913Z,18.00
2023-03-27T16:33:51.392Z,18.00
2023-03-27T16:36:36.825Z,18.00
2023-03-27T16:39:10.869Z,18.00
2023-03-27T16:41:44.067Z,18.10
2023-03-27T16:44:16.879Z,18.10
2023-03-27T16:46:49.935Z,18.10
2023-03-27T16:49:22.970Z,18.10
2023-03-27T16:51:55.914Z,18.10
2023-03-27T16:54:28.883Z,18.20
2023-03-27T16:57:02.071Z,18.20
2023-03-27T16:59:38.244Z,18.20
2023-03-27T17:02:12.294Z,18.30
2023-03-27T17:04:45.815Z,18.30
2023-03-27T17:07:18.903Z,18.30
2023-03-27T17:09:51.727Z,18.30
2023-03-27T17:12:24.887Z,18.30
2023-03-27T17:14:58.836Z,18.30
2023-03-27T17:17:32.341Z,18.30
2023-03-27T17:20:06.457Z,18.30
2023-03-27T17:22:39.785Z,18.40
2023-03-27T17:25:13.939Z,18.40
2023-03-27T17:27:47.009Z,18.40
2023-03-27T17:30:30.627Z,18.40
2023-03-27T17:32:54.289Z,18.40
2023-03-27T17:35:27.313Z,18.40
2023-03-27T17:38:00.302Z,18.40
2023-03-27T17:40:33.197Z,18.40
2023-03-27T17:43:06.157Z,18.40
2023-03-27T17:45:40.440Z,18.30
2023-03-27T17:48:13.830Z,18.30
2023-03-27T17:50:52.070Z,18.30
2023-03-27T17:53:21.849Z,18.30
2023-03-27T17:55:56.083Z,18.30
2023-03-27T17:58:30.646Z,18.30
2023-03-27T18:01:04.303Z,18.30
2023-03-27T18:03:37.229Z,18.30
2023-03-27T18:06:10.398Z,18.30
2023-03-27T18:08:43.522Z,18.30
2023-03-27T18:11:17.850Z,18.30
2023-03-27T18:13:51.986Z,18.30
2023-03-27T18:16:25.231Z,18.30
2023-03-27T18:18:59.392Z,18.30
2023-03-27T18:21:32.258Z,18.30
2023-03-27T18:24:05.265Z,18.30
2023-03-27T18:26:38.051Z,18.30
2023-03-27T18:29:11.008Z,18.30
2023-03-27T18:31:44.854Z,18.30
2023-03-27T18:34:18.717Z,18.30
2023-03-27T18:36:52.776Z,18.30
2023-03-27T18:39:25.521Z,18.30
2023-03-27T18:41:59.763Z,18.30
2023-03-27T18:44:33.063Z,18.30
2023-03-27T18:47:06.036Z,18.30
2023-03-27T18:49:38.711Z,18.40
2023-03-27T18:52:12.248Z,18.40
2023-03-27T18:54:45.318Z,18.40
2023-03-27T18:57:20.081Z,18.40
2023-03-27T18:59:57.619Z,18.40
2023-03-27T19:02:30.425Z,18.40
2023-03-27T19:05:04.114Z,18.50
2023-03-27T19:07:36.906Z,18.50
2023-03-27T19:10:12.151Z,18.50
2023-03-27T19:12:45.260Z,18.50
2023-03-27T19:15:20.160Z,18.50
2023-03-27T19:17:53.047Z,18.60
2023-03-27T19:20:26.369Z,18.60
2023-03-27T19:22:59.225Z,18.60
2023-03-27T19:25:31.980Z,18.70
2023-03-27T19:28:06.182Z,18.70
2023-03-27T19:30:39.037Z,18.70
2023-03-27T19:33:13.228Z,18.80
2023-03-27T19:35:45.994Z,18.80
2023-03-27T19:38:19.227Z,18.90
2023-03-27T19:40:52.033Z,18.90
2023-03-27T19:43:24.874Z,19.00
2023-03-27T19:46:15.124Z,19.00
2023-03-27T19:48:36.395Z,19.10
2023-03-27T19:51:09.695Z,19.10
2023-03-27T19:53:42.622Z,19.10
2023-03-27T19:56:15.473Z,19.10
2023-03-27T19:58:48.299Z,19.20
2023-03-27T20:01:21.649Z,19.20
2023-03-27T20:03:54.452Z,19.20
2023-03-27T20:06:27.963Z,19.30
2023-03-27T20:09:02.067Z,19.30
2023-03-27T20:11:34.884Z,19.40
2023-03-27T20:14:07.860Z,19.50
2023-03-27T20:16:41.702Z,19.50
2023-03-27T20:19:16.750Z,19.50
2023-03-27T20:21:49.713Z,19.60
2023-03-27T20:24:22.950Z,19.60
2023-03-27T20:26:57.290Z,19.70
2023-03-27T20:29:30.067Z,19.70
2023-03-27T20:32:02.854Z,19.70
2023-03-27T20:34:36.587Z,19.70
2023-03-27T20:37:10.599Z,19.70
2023-03-27T20:39:45.955Z,19.80
2023-03-27T20:42:20.421Z,19.80
2023-03-27T20:45:01.114Z,19.80
2023-03-27T20:47:39.994Z,19.80
2023-03-27T20:50:13.680Z,19.90
2023-03-27T20:52:50.326Z,19.90
2023-03-27T20:55:32.924Z,19.90
2023-03-27T20:57:57.200Z,20.00
2023-03-27T21:00:30.350Z,20.00
2023-03-27T21:03:03.653Z,20.00
2023-03-27T21:05:38.756Z,20.00
2023-03-27T21:08:11.829Z,20.00
2023-03-27T21:10:45.201Z,20.00
2023-03-27T21:13:18.138Z,20.10
2023-03-27T21:15:51.162Z,20.10
2023-03-27T21:18:24.006Z,20.10
2023-03-27T21:21:01.165Z,20.10
2023-03-27T21:23:34.917Z,20.10
2023-03-27T21:26:08.135Z,20.00
2023-03-27T21:28:40.840Z,20.00
2023-03-27T21:31:14.296Z,20.10
2023-03-27T21:33:47.295Z,20.10
2023-03-27T21:36:20.213Z,20.10
2023-03-27T21:38:53.346Z,20.10
2023-03-27T21:41:26.727Z,20.10
2023-03-27T21:43:59.965Z,20.10
2023-03-27T21:46:32.858Z,20.20
2023-03-27T21:49:07.171Z,20.20
2023-03-27T21:51:40.194Z,20.20
2023-03-27T21:54:12.824Z,20.20
2023-03-27T21:56:46.491Z,20.20
2023-03-27T21:59:19.510Z,20.20
2023-03-27T22:01:52.439Z,20.20
2023-03-27T22:04:25.146Z,20.30
2023-03-27T22:06:57.851Z,20.30
2023-03-27T22:09:31.040Z,20.30
2023-03-27T22:12:04.006Z,20.30
2023-03-27T22:14:37.029Z,20.30
2023-03-27T22:17:10.079Z,20.30
2023-03-27T22:19:43.174Z,20.30
2023-03-27T22:22:16.187Z,20.30
2023-03-27T22:24:51.614Z,20.40
2023-03-27T22:27:24.961Z,20.40
2023-03-27T22:29:57.865Z,20.40
2023-03-27T22:32:31.057Z,20.40
2023-03-27T22:35:03.994Z,20.40
2023-03-27T22:37:44.600Z,20.40
2023-03-27T22:40:17.885Z,20.40
2023-03-27T22:42:50.882Z,20.40
2023-03-27T22:45:23.953Z,20.40
2023-03-27T22:47:56.817Z,20.40
2023-03-27T22:50:29.811Z,20.40
2023-03-27T22:53:02.763Z,20.40
2023-03-27T22:55:35.804Z,20.40
2023-03-27T22:58:08.826Z,20.40
2023-03-27T23:00:41.745Z,20.40
2023-03-27T23:03:14.682Z,20.50
2023-03-27T23:05:49.040Z,20.50
2023-03-27T23:08:23.249Z,20.60
2023-03-27T23:11:00.871Z,20.70
2023-03-27T23:13:34.577Z,20.70
2023-03-27T23:16:07.646Z,20.80
2023-03-27T23:18:40.925Z,20.80
2023-03-27T23:21:15.682Z,20.90
2023-03-27T23:23:49.048Z,20.90
2023-03-27T23:26:22.579Z,20.90
2023-03-27T23:28:55.917Z,20.90
2023-03-27T23:31:28.961Z,20.90
2023-03-27T23:34:01.805Z,20.80
2023-03-27T23:36:35.492Z,20.90
2023-03-27T23:39:08.841Z,20.90
2023-03-27T23:41:42.012Z,20.90
2023-03-27T23:44:15.158Z,20.90
2023-03-27T23:46:48.284Z,20.90
2023-03-27T23:49:25.319Z,21.00
2023-03-27T23:51:59.379Z,21.10
2023-03-27T23:54:32.328Z,21.10
2023-03-27T23:57:05.328Z,21.20
2023-03-27T23:59:38.449Z,21.20
